Detall de PIREP

Printer-friendly versionPDF version

[2012/10/19 15:40:00]
Flight IATA:CT0001
Pilot Number:044
Company ICAO:CAT
Aircraft Type:BE20/A
PAX:4
Departing Airport: LEDA
Destination Airport: LEVC
Alternate Airport:LEAL
Online: VATSIM
Route:OSVAK H110 SEROX A34 TATOS
Flight Level:F150
No Slew and time accel
No pause
Crash detect
Detect pilot in Cockpit between each 30 and 45 minutes
15:40 Zero fuel Weight: 9334 Lbs, Fuel Weight: 914 Lbs
15:40 VATSIM:LEDA 191530Z 09013KT 6000 -RA FEW035 SCT040 20/18 Q1009
15:40 VATSIM:LEVC 191530Z 09009KT 050V110 9999 FEW020 25/15 Q1007 NOSIG
15:40 VOICE CATALONIAN
15:41 Parking Brakes off
15:46 Take-off
15:46 Take off Weight: 10222 Lbs
15:46 Wind: 136º @ 002 Knots Heading: 132º
15:46 POS N41º 43´ 40´´ E000º 32´ 08´´
15:46 Flaps:1 at 134 Knots
15:46 Gear Up: 133 Knots
15:46 Flaps:0 at 132 Knots
16:01 Wind:130º@005 Knots Heading: 194º Ground Speed: 234 Knots Altitude 14573 ft
16:01 TOC
16:01 Fuel Weight: 669 Lb
16:13 TOD
16:13 Fuel Weight: 523 Lb
16:16 Wind:081º@015 Knots Heading: 194º Ground Speed: 230 Knots Altitude 11302 ft
16:31 Wind:080º@007 Knots Heading: 117º Ground Speed: 194 Knots Altitude 2732 ft
16:32 Gear Down: 195 Knots
16:33 TouchDown:Rate -345 ft/min Speed: 150 Knots
16:34 Gear Up: 183 Knots
16:46 Wind:069º@007 Knots Heading: 029º Ground Speed: 183 Knots Altitude 2916 ft
16:47 Flaps:1 at 157 Knots
16:48 Gear Down: 146 Knots
16:49 Flaps:2 at 142 Knots
16:52 TouchDown:Rate -49 ft/min Speed: 106 Knots
16:52 VATSIM:LEVC 191630Z 07007KT 9999 FEW030 24/18 Q1008 NOSIG
16:52 Land
16:52 Wind:073º@007 Knots
16:52 Heading: 117º
16:52 Flight Duration: 01:06
16:52 Landing Weight: 9592 Lbs
16:52 POS N39º 29´ 20´´ W000º 28´ 50´´
16:53 Parking brakes on
16:53 Block to Block Duration: 01:12
16:53 Final Fuel: 251 Lbls
16:53 Spent Fuel: 663 Lbls
16:53 Flight Length: 233 NM
16:53 TOD Land Length: 124 NM

Exportar CSV

Powered by Drupal - Modified by Danger4k